map of DTTN home
DTTN - Facility
Location
City:  Jendouba, Tunisia
ICAO:DTTN

Details
Type:Facility
Latitude:3629'N (36.483)
Longitude:848'E (8.800)
Variation:2.39E (WMM2015v2 magnetic declination)
0.12 annual change

Time
Time Zone:UTC+1
Local Time:

Weather
METAR:DTTN 041400Z 25007KT 8000 SHRA SCT020 FEW023CB SCT030 07/05 Q1015 CB/W

Related Locations
Nearby:
Farthest:CHT: 11856 mi / 19080 km
Waitangi [Tuuta], CIT, NZ

Find:

   beyond  
but within

Other Information
Maps:
NOTAMs:
Links:
Sources:

  
  • flag of Tunisia
  

Sectional Chart

Flight Planning
at skyvector.com

Satellite Image

Google Maps Satellite view

 

Copyright © 2004-2019 Karl L. Swartz. All rights reserved.
The Great Circle Mapper name and logo are trademarks of the Great Circle Mapper.
All other trademarks mentioned herein belong to their respective owners.
Please see credits for attibutions and further copyright information.

  Follow gcmap on Facebook Follow gcmap on Twitter GCmap on LinkedIn

hCard Microformat

Geo Microformat